sensor_id;sensor_type;location;lat;lon;timestamp;pressure;altitude;pressure_sealevel;temperature;humidity
12213;BME280;6169;44.158;22.788;2023-02-26T00:02:02;99715.41;;;8.33;73.49
12213;BME280;6169;44.158;22.788;2023-02-26T00:07:05;99695.63;;;8.49;72.56
12213;BME280;6169;44.158;22.788;2023-02-26T00:12:10;99696.75;;;8.36;73.10
12213;BME280;6169;44.158;22.788;2023-02-26T00:17:24;99694.31;;;8.52;72.86
12213;BME280;6169;44.158;22.788;2023-02-26T00:22:28;99690.59;;;8.58;72.86
12213;BME280;6169;44.158;22.788;2023-02-26T00:27:32;99685.16;;;8.75;71.23
12213;BME280;6169;44.158;22.788;2023-02-26T00:32:36;99676.25;;;8.57;71.94
12213;BME280;6169;44.158;22.788;2023-02-26T00:37:59;99672.69;;;8.57;72.72
12213;BME280;6169;44.158;22.788;2023-02-26T00:43:06;99651.97;;;8.67;71.05
12213;BME280;6169;44.158;22.788;2023-02-26T00:48:21;99665.47;;;8.62;71.67
12213;BME280;6169;44.158;22.788;2023-02-26T00:53:35;99652.63;;;8.36;72.71
12213;BME280;6169;44.158;22.788;2023-02-26T00:58:40;99633.13;;;8.56;71.98
12213;BME280;6169;44.158;22.788;2023-02-26T01:03:42;99624.13;;;8.50;72.44
12213;BME280;6169;44.158;22.788;2023-02-26T01:08:51;99615.75;;;8.52;72.36
12213;BME280;6169;44.158;22.788;2023-02-26T01:13:57;99626.09;;;8.55;72.73
12213;BME280;6169;44.158;22.788;2023-02-26T01:19:03;99629.16;;;8.41;73.56
12213;BME280;6169;44.158;22.788;2023-02-26T01:24:12;99633.81;;;8.12;73.74
12213;BME280;6169;44.158;22.788;2023-02-26T01:29:18;99584.19;;;8.40;73.23
12213;BME280;6169;44.158;22.788;2023-02-26T01:34:23;99584.75;;;8.64;71.98
12213;BME280;6169;44.158;22.788;2023-02-26T01:39:31;99581.41;;;8.18;73.94
12213;BME280;6169;44.158;22.788;2023-02-26T01:44:40;99576.63;;;8.26;73.65
12213;BME280;6169;44.158;22.788;2023-02-26T01:49:44;99582.31;;;8.63;72.57
12213;BME280;6169;44.158;22.788;2023-02-26T01:54:46;99577.84;;;8.52;72.73
12213;BME280;6169;44.158;22.788;2023-02-26T01:59:51;99592.03;;;8.42;72.46
12213;BME280;6169;44.158;22.788;2023-02-26T02:04:55;99607.09;;;8.33;73.21
12213;BME280;6169;44.158;22.788;2023-02-26T02:09:57;99583.84;;;8.37;73.24
12213;BME280;6169;44.158;22.788;2023-02-26T02:15:08;99589.41;;;8.47;73.04
12213;BME280;6169;44.158;22.788;2023-02-26T02:20:26;99589.09;;;8.43;72.77
12213;BME280;6169;44.158;22.788;2023-02-26T02:25:54;99593.53;;;8.72;71.97
12213;BME280;6169;44.158;22.788;2023-02-26T02:31:05;99579.69;;;8.51;72.54
12213;BME280;6169;44.158;22.788;2023-02-26T02:36:12;99597.84;;;8.51;72.56
12213;BME280;6169;44.158;22.788;2023-02-26T02:41:19;99596.28;;;8.77;70.47
12213;BME280;6169;44.158;22.788;2023-02-26T02:46:27;99579.03;;;8.61;71.93
12213;BME280;6169;44.158;22.788;2023-02-26T02:51:32;99588.13;;;8.72;72.72
12213;BME280;6169;44.158;22.788;2023-02-26T02:56:39;99573.56;;;8.78;71.08
12213;BME280;6169;44.158;22.788;2023-02-26T03:01:49;99583.53;;;7.99;74.42
12213;BME280;6169;44.158;22.788;2023-02-26T03:06:52;99598.28;;;8.42;73.45
12213;BME280;6169;44.158;22.788;2023-02-26T03:11:54;99602.97;;;8.30;74.17
12213;BME280;6169;44.158;22.788;2023-02-26T03:17:10;99610.59;;;7.99;76.98
12213;BME280;6169;44.158;22.788;2023-02-26T03:22:16;99612.50;;;7.99;76.43
12213;BME280;6169;44.158;22.788;2023-02-26T03:27:22;99600.75;;;8.44;74.48
12213;BME280;6169;44.158;22.788;2023-02-26T03:32:31;99595.19;;;8.34;74.20
12213;BME280;6169;44.158;22.788;2023-02-26T03:37:37;99583.91;;;8.42;74.62
12213;BME280;6169;44.158;22.788;2023-02-26T03:42:44;99590.22;;;8.48;74.61
12213;BME280;6169;44.158;22.788;2023-02-26T03:47:50;99552.94;;;8.77;73.46
12213;BME280;6169;44.158;22.788;2023-02-26T03:52:54;99483.47;;;8.05;74.20
12213;BME280;6169;44.158;22.788;2023-02-26T03:57:56;99585.50;;;8.82;73.05
12213;BME280;6169;44.158;22.788;2023-02-26T04:03:04;99574.94;;;8.58;72.64
12213;BME280;6169;44.158;22.788;2023-02-26T04:08:08;99593.53;;;8.33;74.22
12213;BME280;6169;44.158;22.788;2023-02-26T04:13:11;99602.75;;;8.54;72.73
12213;BME280;6169;44.158;22.788;2023-02-26T04:18:15;99582.91;;;8.48;72.84
12213;BME280;6169;44.158;22.788;2023-02-26T04:23:17;99584.25;;;8.29;72.90
12213;BME280;6169;44.158;22.788;2023-02-26T04:28:20;99581.78;;;8.88;71.07
12213;BME280;6169;44.158;22.788;2023-02-26T04:33:24;99592.81;;;8.59;71.10
12213;BME280;6169;44.158;22.788;2023-02-26T04:38:26;99587.47;;;8.64;70.10
12213;BME280;6169;44.158;22.788;2023-02-26T04:43:28;99580.97;;;8.65;71.04
12213;BME280;6169;44.158;22.788;2023-02-26T04:48:32;99565.28;;;8.67;70.02
12213;BME280;6169;44.158;22.788;2023-02-26T04:53:35;99566.06;;;8.63;70.62
12213;BME280;6169;44.158;22.788;2023-02-26T04:58:37;99582.47;;;8.56;71.40
12213;BME280;6169;44.158;22.788;2023-02-26T05:03:41;99578.44;;;8.37;71.42
12213;BME280;6169;44.158;22.788;2023-02-26T05:08:43;99589.66;;;8.45;71.55
12213;BME280;6169;44.158;22.788;2023-02-26T05:13:46;99570.88;;;8.22;72.74
12213;BME280;6169;44.158;22.788;2023-02-26T05:18:50;99574.94;;;8.80;71.71
12213;BME280;6169;44.158;22.788;2023-02-26T05:23:53;99546.69;;;8.76;71.20
12213;BME280;6169;44.158;22.788;2023-02-26T05:28:56;99553.47;;;8.52;71.98
12213;BME280;6169;44.158;22.788;2023-02-26T05:33:59;99580.41;;;8.63;72.17
12213;BME280;6169;44.158;22.788;2023-02-26T05:39:01;99557.09;;;8.23;71.46
12213;BME280;6169;44.158;22.788;2023-02-26T05:44:04;99584.56;;;8.71;71.19
12213;BME280;6169;44.158;22.788;2023-02-26T05:49:09;99594.63;;;8.54;71.55
12213;BME280;6169;44.158;22.788;2023-02-26T05:54:11;99578.44;;;8.03;74.49
12213;BME280;6169;44.158;22.788;2023-02-26T05:59:13;99572.06;;;7.92;75.10
12213;BME280;6169;44.158;22.788;2023-02-26T06:04:17;99579.19;;;8.54;72.86
12213;BME280;6169;44.158;22.788;2023-02-26T06:09:19;99574.13;;;8.58;72.23
12213;BME280;6169;44.158;22.788;2023-02-26T06:14:22;99585.97;;;8.52;70.56
12213;BME280;6169;44.158;22.788;2023-02-26T06:19:26;99583.63;;;9.04;70.91
12213;BME280;6169;44.158;22.788;2023-02-26T06:24:28;99572.53;;;9.06;70.74
12213;BME280;6169;44.158;22.788;2023-02-26T06:29:30;99582.88;;;8.87;72.19
12213;BME280;6169;44.158;22.788;2023-02-26T06:34:34;99587.22;;;8.10;75.61
12213;BME280;6169;44.158;22.788;2023-02-26T06:39:37;99582.97;;;9.19;71.60
12213;BME280;6169;44.158;22.788;2023-02-26T06:44:39;99580.00;;;8.72;72.27
12213;BME280;6169;44.158;22.788;2023-02-26T06:49:43;99584.97;;;9.29;71.32
12213;BME280;6169;44.158;22.788;2023-02-26T06:54:45;99569.25;;;9.04;72.67
12213;BME280;6169;44.158;22.788;2023-02-26T06:59:47;99575.47;;;9.04;71.40
12213;BME280;6169;44.158;22.788;2023-02-26T07:04:52;99576.03;;;9.28;70.72
12213;BME280;6169;44.158;22.788;2023-02-26T07:09:54;99595.41;;;9.69;69.84
12213;BME280;6169;44.158;22.788;2023-02-26T07:14:56;99604.63;;;8.31;75.37
12213;BME280;6169;44.158;22.788;2023-02-26T07:20:00;99603.38;;;9.00;72.88
12213;BME280;6169;44.158;22.788;2023-02-26T07:25:06;99615.09;;;8.83;75.35
12213;BME280;6169;44.158;22.788;2023-02-26T07:30:10;99627.16;;;9.69;71.91
12213;BME280;6169;44.158;22.788;2023-02-26T07:35:14;99625.94;;;9.32;72.45
12213;BME280;6169;44.158;22.788;2023-02-26T07:40:16;99627.25;;;9.25;72.88
12213;BME280;6169;44.158;22.788;2023-02-26T07:45:19;99618.53;;;9.50;73.66
12213;BME280;6169;44.158;22.788;2023-02-26T07:50:23;99623.00;;;9.61;73.28
12213;BME280;6169;44.158;22.788;2023-02-26T07:55:26;99637.25;;;10.06;72.70
12213;BME280;6169;44.158;22.788;2023-02-26T08:00:28;99608.69;;;10.35;70.92
12213;BME280;6169;44.158;22.788;2023-02-26T08:05:32;99609.66;;;9.54;74.68
12213;BME280;6169;44.158;22.788;2023-02-26T08:10:34;99608.38;;;10.27;71.38
12213;BME280;6169;44.158;22.788;2023-02-26T08:15:36;99616.84;;;9.98;72.17
12213;BME280;6169;44.158;22.788;2023-02-26T08:20:40;99610.03;;;10.33;70.12
12213;BME280;6169;44.158;22.788;2023-02-26T08:25:43;99620.63;;;10.29;72.12
12213;BME280;6169;44.158;22.788;2023-02-26T08:30:45;99608.78;;;10.51;70.80
12213;BME280;6169;44.158;22.788;2023-02-26T08:35:49;99617.09;;;10.34;72.87
12213;BME280;6169;44.158;22.788;2023-02-26T08:40:51;99624.78;;;10.89;69.62
12213;BME280;6169;44.158;22.788;2023-02-26T08:45:54;99624.00;;;10.99;69.72
12213;BME280;6169;44.158;22.788;2023-02-26T08:50:59;99633.81;;;11.05;70.73
12213;BME280;6169;44.158;22.788;2023-02-26T08:56:01;99631.25;;;11.72;67.65
12213;BME280;6169;44.158;22.788;2023-02-26T09:01:04;99633.94;;;11.36;68.66
12213;BME280;6169;44.158;22.788;2023-02-26T09:06:08;99650.00;;;11.48;69.30
12213;BME280;6169;44.158;22.788;2023-02-26T09:11:10;99637.47;;;11.47;70.24
12213;BME280;6169;44.158;22.788;2023-02-26T09:16:13;99646.41;;;11.27;69.58
12213;BME280;6169;44.158;22.788;2023-02-26T09:21:18;99648.25;;;11.06;70.56
12213;BME280;6169;44.158;22.788;2023-02-26T09:26:20;99617.81;;;11.24;69.59
12213;BME280;6169;44.158;22.788;2023-02-26T09:31:22;99653.66;;;12.05;67.78
12213;BME280;6169;44.158;22.788;2023-02-26T09:36:26;99646.28;;;11.95;68.88
12213;BME280;6169;44.158;22.788;2023-02-26T09:41:33;99663.09;;;11.66;69.91
12213;BME280;6169;44.158;22.788;2023-02-26T09:46:46;99658.56;;;11.92;72.31
12213;BME280;6169;44.158;22.788;2023-02-26T09:51:53;99671.91;;;12.14;70.38
12213;BME280;6169;44.158;22.788;2023-02-26T09:56:58;99659.63;;;11.96;69.41
12213;BME280;6169;44.158;22.788;2023-02-26T10:02:10;99676.44;;;11.63;71.42
12213;BME280;6169;44.158;22.788;2023-02-26T10:07:23;99683.31;;;11.86;70.25
12213;BME280;6169;44.158;22.788;2023-02-26T10:12:28;99686.63;;;12.13;70.05
12213;BME280;6169;44.158;22.788;2023-02-26T10:17:40;99676.22;;;12.61;67.67
12213;BME280;6169;44.158;22.788;2023-02-26T10:22:54;99684.59;;;13.16;65.74
12213;BME280;6169;44.158;22.788;2023-02-26T10:28:01;99683.34;;;12.21;67.23
12213;BME280;6169;44.158;22.788;2023-02-26T10:33:15;99691.25;;;12.13;67.78
12213;BME280;6169;44.158;22.788;2023-02-26T10:38:24;99693.88;;;11.72;66.97
12213;BME280;6169;44.158;22.788;2023-02-26T10:43:31;99701.56;;;11.85;66.50
12213;BME280;6169;44.158;22.788;2023-02-26T10:48:49;99697.09;;;11.53;65.98
12213;BME280;6169;44.158;22.788;2023-02-26T10:53:58;99698.50;;;11.66;66.81
12213;BME280;6169;44.158;22.788;2023-02-26T10:59:01;99717.84;;;11.65;64.41
12213;BME280;6169;44.158;22.788;2023-02-26T11:04:06;99713.25;;;11.75;65.21
12213;BME280;6169;44.158;22.788;2023-02-26T11:09:22;99712.97;;;11.77;64.70
12213;BME280;6169;44.158;22.788;2023-02-26T11:14:26;99705.09;;;11.80;64.97
12213;BME280;6169;44.158;22.788;2023-02-26T11:19:31;99699.41;;;11.87;63.86
12213;BME280;6169;44.158;22.788;2023-02-26T11:24:38;99699.13;;;11.99;63.87
12213;BME280;6169;44.158;22.788;2023-02-26T11:29:46;99729.34;;;11.97;63.00
12213;BME280;6169;44.158;22.788;2023-02-26T11:34:51;99726.00;;;11.75;62.85
12213;BME280;6169;44.158;22.788;2023-02-26T11:39:58;99737.81;;;12.06;62.08
12213;BME280;6169;44.158;22.788;2023-02-26T11:45:01;99742.78;;;12.35;60.96
12213;BME280;6169;44.158;22.788;2023-02-26T11:50:13;99737.59;;;12.38;60.01
12213;BME280;6169;44.158;22.788;2023-02-26T11:55:20;99732.94;;;12.34;59.45
12213;BME280;6169;44.158;22.788;2023-02-26T12:00:25;99739.22;;;12.60;58.01
12213;BME280;6169;44.158;22.788;2023-02-26T12:05:30;99737.56;;;12.79;57.34
12213;BME280;6169;44.158;22.788;2023-02-26T12:10:39;99735.94;;;12.58;56.23
12213;BME280;6169;44.158;22.788;2023-02-26T12:15:52;99729.06;;;13.01;55.33
12213;BME280;6169;44.158;22.788;2023-02-26T12:21:07;99744.63;;;13.11;51.84
12213;BME280;6169;44.158;22.788;2023-02-26T12:26:26;99746.03;;;12.88;52.67
12213;BME280;6169;44.158;22.788;2023-02-26T12:32:06;99746.31;;;12.81;51.14
12213;BME280;6169;44.158;22.788;2023-02-26T12:37:33;99735.94;;;12.78;51.25
12213;BME280;6169;44.158;22.788;2023-02-26T12:42:47;99765.06;;;12.06;51.10
12213;BME280;6169;44.158;22.788;2023-02-26T12:48:24;99785.00;;;12.32;50.53
12213;BME280;6169;44.158;22.788;2023-02-26T12:54:05;99779.78;;;12.10;49.54
12213;BME280;6169;44.158;22.788;2023-02-26T12:59:26;99791.72;;;11.94;49.25
12213;BME280;6169;44.158;22.788;2023-02-26T13:04:46;99788.81;;;12.57;50.33
12213;BME280;6169;44.158;22.788;2023-02-26T13:10:00;99794.81;;;12.33;48.35
12213;BME280;6169;44.158;22.788;2023-02-26T13:15:23;99794.28;;;12.41;47.66
12213;BME280;6169;44.158;22.788;2023-02-26T13:20:27;99788.28;;;12.70;46.42
12213;BME280;6169;44.158;22.788;2023-02-26T13:25:35;99769.44;;;12.17;46.55
12213;BME280;6169;44.158;22.788;2023-02-26T13:30:43;99761.84;;;12.35;45.73
12213;BME280;6169;44.158;22.788;2023-02-26T13:35:49;99797.84;;;12.93;45.10
12213;BME280;6169;44.158;22.788;2023-02-26T13:41:01;99796.19;;;12.61;44.62
12213;BME280;6169;44.158;22.788;2023-02-26T13:46:35;99815.25;;;12.41;45.55
12213;BME280;6169;44.158;22.788;2023-02-26T13:51:43;99805.97;;;12.37;46.99
12213;BME280;6169;44.158;22.788;2023-02-26T13:56:51;99814.63;;;12.03;46.73
12213;BME280;6169;44.158;22.788;2023-02-26T14:02:00;99834.22;;;11.95;49.43
12213;BME280;6169;44.158;22.788;2023-02-26T14:07:10;99853.84;;;12.02;48.82
12213;BME280;6169;44.158;22.788;2023-02-26T14:12:25;99856.16;;;12.46;47.10
12213;BME280;6169;44.158;22.788;2023-02-26T14:17:40;99830.88;;;11.77;47.01
12213;BME280;6169;44.158;22.788;2023-02-26T14:28:39;99844.03;;;11.96;45.37
12213;BME280;6169;44.158;22.788;2023-02-26T14:33:47;99838.47;;;11.75;46.42
12213;BME280;6169;44.158;22.788;2023-02-26T14:39:01;99808.75;;;11.11;46.76
12213;BME280;6169;44.158;22.788;2023-02-26T14:44:12;99846.91;;;10.89;47.70
12213;BME280;6169;44.158;22.788;2023-02-26T14:49:23;99865.69;;;10.63;48.56
12213;BME280;6169;44.158;22.788;2023-02-26T14:54:47;99886.09;;;10.93;48.12
12213;BME280;6169;44.158;22.788;2023-02-26T15:00:06;99887.91;;;10.55;48.39
12213;BME280;6169;44.158;22.788;2023-02-26T15:05:42;99892.56;;;10.60;48.27
12213;BME280;6169;44.158;22.788;2023-02-26T15:11:08;99895.00;;;10.34;48.86
12213;BME280;6169;44.158;22.788;2023-02-26T15:16:24;99896.59;;;10.30;48.68
12213;BME280;6169;44.158;22.788;2023-02-26T15:21:39;99908.13;;;10.42;48.78
12213;BME280;6169;44.158;22.788;2023-02-26T15:26:47;99922.34;;;10.50;49.12
12213;BME280;6169;44.158;22.788;2023-02-26T15:31:53;99922.88;;;10.24;49.80
12213;BME280;6169;44.158;22.788;2023-02-26T15:36:57;99941.59;;;9.99;50.41
12213;BME280;6169;44.158;22.788;2023-02-26T15:42:01;99940.34;;;9.68;50.34
12213;BME280;6169;44.158;22.788;2023-02-26T15:47:04;99926.47;;;9.30;51.98
12213;BME280;6169;44.158;22.788;2023-02-26T15:52:14;99952.84;;;9.52;50.91
12213;BME280;6169;44.158;22.788;2023-02-26T15:57:18;99975.34;;;9.69;51.84
12213;BME280;6169;44.158;22.788;2023-02-26T16:02:26;99977.13;;;9.97;50.47
12213;BME280;6169;44.158;22.788;2023-02-26T16:07:30;99963.75;;;10.13;49.35
12213;BME280;6169;44.158;22.788;2023-02-26T16:12:35;99982.31;;;9.99;50.58
12213;BME280;6169;44.158;22.788;2023-02-26T16:17:42;99987.47;;;8.99;54.01
12213;BME280;6169;44.158;22.788;2023-02-26T16:22:48;99997.53;;;9.49;53.61
12213;BME280;6169;44.158;22.788;2023-02-26T16:27:57;99991.59;;;9.19;53.09
12213;BME280;6169;44.158;22.788;2023-02-26T16:33:01;100012.69;;;8.71;54.22
12213;BME280;6169;44.158;22.788;2023-02-26T16:38:11;100024.28;;;8.95;54.24
12213;BME280;6169;44.158;22.788;2023-02-26T16:43:50;100051.03;;;8.63;54.59
12213;BME280;6169;44.158;22.788;2023-02-26T16:48:56;100063.28;;;8.94;53.90
12213;BME280;6169;44.158;22.788;2023-02-26T16:54:05;100082.13;;;8.13;54.69
12213;BME280;6169;44.158;22.788;2023-02-26T16:59:13;100064.13;;;8.07;55.54
12213;BME280;6169;44.158;22.788;2023-02-26T17:04:17;100040.41;;;8.61;53.45
12213;BME280;6169;44.158;22.788;2023-02-26T17:09:34;100063.66;;;8.34;55.27
12213;BME280;6169;44.158;22.788;2023-02-26T17:14:39;100063.50;;;8.64;54.22
12213;BME280;6169;44.158;22.788;2023-02-26T17:19:42;100068.22;;;8.68;55.54
12213;BME280;6169;44.158;22.788;2023-02-26T17:24:46;100075.31;;;8.11;55.67
12213;BME280;6169;44.158;22.788;2023-02-26T17:29:49;100067.88;;;7.94;55.05
12213;BME280;6169;44.158;22.788;2023-02-26T17:34:53;100054.69;;;7.86;54.40
12213;BME280;6169;44.158;22.788;2023-02-26T17:39:57;100067.28;;;8.51;52.89
12213;BME280;6169;44.158;22.788;2023-02-26T17:44:59;100073.88;;;8.20;53.77
12213;BME280;6169;44.158;22.788;2023-02-26T17:50:14;100096.38;;;8.20;52.99
12213;BME280;6169;44.158;22.788;2023-02-26T17:55:22;100030.47;;;8.03;51.42
12213;BME280;6169;44.158;22.788;2023-02-26T18:00:25;100093.66;;;8.09;52.69
12213;BME280;6169;44.158;22.788;2023-02-26T18:05:28;100083.44;;;7.87;53.16
12213;BME280;6169;44.158;22.788;2023-02-26T18:10:34;100073.41;;;7.64;55.02
12213;BME280;6169;44.158;22.788;2023-02-26T18:15:37;100064.41;;;7.40;55.10
12213;BME280;6169;44.158;22.788;2023-02-26T18:20:40;100084.94;;;7.71;54.09
12213;BME280;6169;44.158;22.788;2023-02-26T18:25:46;100099.88;;;7.32;56.11
12213;BME280;6169;44.158;22.788;2023-02-26T18:30:49;100095.75;;;7.29;57.01
12213;BME280;6169;44.158;22.788;2023-02-26T18:35:54;100112.50;;;7.50;56.20
12213;BME280;6169;44.158;22.788;2023-02-26T18:40:58;100118.22;;;7.84;55.32
12213;BME280;6169;44.158;22.788;2023-02-26T18:46:01;100123.13;;;7.63;56.10
12213;BME280;6169;44.158;22.788;2023-02-26T18:51:05;100122.34;;;7.32;57.35
12213;BME280;6169;44.158;22.788;2023-02-26T18:56:09;100124.81;;;7.34;57.35
12213;BME280;6169;44.158;22.788;2023-02-26T19:01:12;100130.13;;;7.94;55.73
12213;BME280;6169;44.158;22.788;2023-02-26T19:06:15;100141.44;;;7.91;55.63
12213;BME280;6169;44.158;22.788;2023-02-26T19:11:19;100129.16;;;7.77;55.86
12213;BME280;6169;44.158;22.788;2023-02-26T19:16:22;100122.75;;;8.01;55.27
12213;BME280;6169;44.158;22.788;2023-02-26T19:21:25;100136.53;;;8.23;54.31
12213;BME280;6169;44.158;22.788;2023-02-26T19:26:30;100154.44;;;8.48;54.44
12213;BME280;6169;44.158;22.788;2023-02-26T19:31:34;100150.44;;;8.39;54.61
12213;BME280;6169;44.158;22.788;2023-02-26T19:36:37;100152.88;;;8.17;54.42
12213;BME280;6169;44.158;22.788;2023-02-26T19:41:44;100155.38;;;8.65;52.30
12213;BME280;6169;44.158;22.788;2023-02-26T19:46:49;100166.44;;;8.29;53.75
12213;BME280;6169;44.158;22.788;2023-02-26T19:51:52;100183.19;;;8.37;53.57
12213;BME280;6169;44.158;22.788;2023-02-26T19:56:56;100197.56;;;8.38;53.73
12213;BME280;6169;44.158;22.788;2023-02-26T20:01:59;100196.91;;;8.12;54.63
12213;BME280;6169;44.158;22.788;2023-02-26T20:07:02;100190.31;;;8.08;54.61
12213;BME280;6169;44.158;22.788;2023-02-26T20:12:07;100194.41;;;7.99;55.37
12213;BME280;6169;44.158;22.788;2023-02-26T20:17:09;100203.03;;;8.19;53.92
12213;BME280;6169;44.158;22.788;2023-02-26T20:22:12;100214.03;;;8.36;53.16
12213;BME280;6169;44.158;22.788;2023-02-26T20:27:17;100206.19;;;8.05;53.25
12213;BME280;6169;44.158;22.788;2023-02-26T20:32:20;100213.38;;;7.99;54.47
12213;BME280;6169;44.158;22.788;2023-02-26T20:37:24;100208.75;;;7.88;55.13
12213;BME280;6169;44.158;22.788;2023-02-26T20:42:28;100201.69;;;7.87;55.29
12213;BME280;6169;44.158;22.788;2023-02-26T20:47:30;100207.09;;;7.87;54.29
12213;BME280;6169;44.158;22.788;2023-02-26T20:52:32;100212.84;;;7.78;54.26
12213;BME280;6169;44.158;22.788;2023-02-26T20:57:36;100218.69;;;8.17;53.88
12213;BME280;6169;44.158;22.788;2023-02-26T21:02:39;100234.41;;;7.97;53.59
12213;BME280;6169;44.158;22.788;2023-02-26T21:07:42;100247.00;;;7.91;54.49
12213;BME280;6169;44.158;22.788;2023-02-26T21:12:46;100251.88;;;8.01;53.88
12213;BME280;6169;44.158;22.788;2023-02-26T21:17:48;100259.09;;;7.89;54.32
12213;BME280;6169;44.158;22.788;2023-02-26T21:22:51;100276.63;;;7.56;55.74
12213;BME280;6169;44.158;22.788;2023-02-26T21:27:55;100272.69;;;7.70;54.72
12213;BME280;6169;44.158;22.788;2023-02-26T21:32:57;100278.19;;;7.27;55.88
12213;BME280;6169;44.158;22.788;2023-02-26T21:38:00;100283.91;;;7.37;55.11
12213;BME280;6169;44.158;22.788;2023-02-26T21:43:03;100289.13;;;7.69;54.39
12213;BME280;6169;44.158;22.788;2023-02-26T21:48:06;100295.81;;;7.66;54.21
12213;BME280;6169;44.158;22.788;2023-02-26T21:53:09;100294.47;;;7.39;55.04
12213;BME280;6169;44.158;22.788;2023-02-26T21:58:13;100295.16;;;8.01;53.93
12213;BME280;6169;44.158;22.788;2023-02-26T22:03:15;100320.88;;;7.62;55.23
12213;BME280;6169;44.158;22.788;2023-02-26T22:08:17;100324.53;;;7.49;54.92
12213;BME280;6169;44.158;22.788;2023-02-26T22:13:21;100318.78;;;7.94;54.31
12213;BME280;6169;44.158;22.788;2023-02-26T22:18:24;100319.28;;;8.02;53.92
12213;BME280;6169;44.158;22.788;2023-02-26T22:23:26;100323.84;;;7.90;52.33
12213;BME280;6169;44.158;22.788;2023-02-26T22:28:30;100329.53;;;8.31;51.98
12213;BME280;6169;44.158;22.788;2023-02-26T22:33:32;100333.47;;;8.16;52.30
12213;BME280;6169;44.158;22.788;2023-02-26T22:38:35;100334.91;;;7.70;54.22
12213;BME280;6169;44.158;22.788;2023-02-26T22:43:39;100329.19;;;8.09;53.92
12213;BME280;6169;44.158;22.788;2023-02-26T22:48:41;100340.75;;;7.86;54.60
12213;BME280;6169;44.158;22.788;2023-02-26T22:53:43;100352.34;;;7.74;54.34
12213;BME280;6169;44.158;22.788;2023-02-26T22:58:47;100351.41;;;7.81;54.02
12213;BME280;6169;44.158;22.788;2023-02-26T23:03:50;100355.81;;;7.82;54.01
12213;BME280;6169;44.158;22.788;2023-02-26T23:08:52;100365.13;;;7.49;55.23
12213;BME280;6169;44.158;22.788;2023-02-26T23:13:56;100371.38;;;7.68;55.45
12213;BME280;6169;44.158;22.788;2023-02-26T23:18:58;100366.97;;;7.67;55.47
12213;BME280;6169;44.158;22.788;2023-02-26T23:24:02;100370.34;;;7.25;56.84
12213;BME280;6169;44.158;22.788;2023-02-26T23:29:06;100365.41;;;7.22;56.61
12213;BME280;6169;44.158;22.788;2023-02-26T23:34:09;100381.34;;;7.05;56.50
12213;BME280;6169;44.158;22.788;2023-02-26T23:39:11;100405.50;;;7.00;57.60
12213;BME280;6169;44.158;22.788;2023-02-26T23:44:16;100423.63;;;6.93;57.84
12213;BME280;6169;44.158;22.788;2023-02-26T23:49:19;100419.50;;;6.91;57.85
12213;BME280;6169;44.158;22.788;2023-02-26T23:54:21;100423.75;;;6.41;59.67
12213;BME280;6169;44.158;22.788;2023-02-26T23:59:25;100411.47;;;7.09;57.25
